createdAt,value
2022-12-08T00:00:52.424Z,8.13
2022-12-08T00:03:28.201Z,8.13
2022-12-08T00:06:15.630Z,8.83
2022-12-08T00:09:03.612Z,7.83
2022-12-08T00:11:32.936Z,7.23
2022-12-08T00:14:04.224Z,6.97
2022-12-08T00:16:32.247Z,7.10
2022-12-08T00:19:00.305Z,7.20
2022-12-08T00:21:32.176Z,7.03
2022-12-08T00:24:03.050Z,7.13
2022-12-08T00:26:35.102Z,6.87
2022-12-08T00:29:06.456Z,7.10
2022-12-08T00:31:44.966Z,6.53
2022-12-08T00:34:16.991Z,6.67
2022-12-08T00:36:55.206Z,6.13
2022-12-08T00:39:39.398Z,5.73
2022-12-08T00:42:16.238Z,5.90
2022-12-08T00:44:56.043Z,6.17
2022-12-08T00:47:44.351Z,6.57
2022-12-08T00:50:32.691Z,5.90
2022-12-08T00:53:05.746Z,6.80
2022-12-08T00:55:36.734Z,6.17
2022-12-08T00:58:16.744Z,5.87
2022-12-08T01:00:56.461Z,5.63
2022-12-08T01:03:26.203Z,5.97
2022-12-08T01:05:59.373Z,5.83
2022-12-08T01:08:34.984Z,6.43
2022-12-08T01:11:05.611Z,6.40
2022-12-08T01:13:38.560Z,5.47
2022-12-08T01:16:16.072Z,6.30
2022-12-08T01:18:47.212Z,6.47
2022-12-08T01:21:19.845Z,6.47
2022-12-08T01:23:48.424Z,7.63
2022-12-08T01:26:29.395Z,6.40
2022-12-08T01:29:08.381Z,6.43
2022-12-08T01:31:43.244Z,6.43
2022-12-08T01:34:37.323Z,7.23
2022-12-08T01:37:15.728Z,7.43
2022-12-08T01:40:00.142Z,7.80
2022-12-08T01:42:42.531Z,6.60
2022-12-08T01:45:24.305Z,5.90
2022-12-08T01:48:06.747Z,5.87
2022-12-08T01:50:35.920Z,6.83
2022-12-08T01:53:11.001Z,5.87
2022-12-08T01:55:49.426Z,6.40
2022-12-08T01:58:40.304Z,6.47
2022-12-08T02:01:18.714Z,7.20
2022-12-08T02:03:57.449Z,7.27
2022-12-08T02:06:40.166Z,7.80
2022-12-08T02:09:17.204Z,7.67
2022-12-08T02:11:50.630Z,7.63
2022-12-08T02:14:23.662Z,8.10
2022-12-08T02:17:07.725Z,7.17
2022-12-08T02:20:10.290Z,6.90
2022-12-08T02:23:00.010Z,6.97
2022-12-08T02:25:42.027Z,6.97
2022-12-08T02:28:37.565Z,6.87
2022-12-08T02:31:17.383Z,6.47
2022-12-08T02:34:04.899Z,6.43
2022-12-08T02:36:43.022Z,6.40
2022-12-08T02:39:38.251Z,7.03
2022-12-08T02:42:16.685Z,5.63
2022-12-08T02:44:56.847Z,6.90
2022-12-08T02:47:26.398Z,6.13
2022-12-08T02:50:10.082Z,6.67
2022-12-08T02:56:02.124Z,7.10
2022-12-08T02:58:57.483Z,6.93
2022-12-08T03:01:58.114Z,6.63
2022-12-08T03:04:38.060Z,6.00
2022-12-08T03:07:20.899Z,6.80
2022-12-08T03:09:58.409Z,6.30
2022-12-08T03:12:59.306Z,6.73
2022-12-08T03:15:41.980Z,6.50
2022-12-08T03:18:21.024Z,6.63
2022-12-08T03:21:15.120Z,6.70
2022-12-08T03:27:13.845Z,6.83
2022-12-08T03:30:05.711Z,6.77
2022-12-08T03:32:41.972Z,5.80
2022-12-08T03:35:16.811Z,6.03
2022-12-08T03:38:20.099Z,6.63
2022-12-08T03:44:19.392Z,6.93
2022-12-08T03:46:56.243Z,6.20
2022-12-08T03:52:35.803Z,6.43
2022-12-08T03:55:07.939Z,6.20
2022-12-08T03:58:00.629Z,6.90
2022-12-08T04:00:28.929Z,6.20
2022-12-08T04:03:16.569Z,6.40
2022-12-08T04:06:02.137Z,6.40
2022-12-08T04:08:35.146Z,6.20
2022-12-08T04:11:06.821Z,7.00
2022-12-08T04:13:36.915Z,6.17
2022-12-08T04:16:05.384Z,6.90
2022-12-08T04:18:33.583Z,6.40
2022-12-08T04:21:01.630Z,6.20
2022-12-08T04:23:40.144Z,7.70
2022-12-08T04:26:19.786Z,5.93
2022-12-08T04:28:58.340Z,6.73
2022-12-08T04:31:32.917Z,6.63
2022-12-08T04:34:11.459Z,6.60
2022-12-08T04:36:55.745Z,6.73
2022-12-08T04:39:34.048Z,8.37
2022-12-08T04:42:04.950Z,6.53
2022-12-08T04:44:34.572Z,7.30
2022-12-08T04:47:18.112Z,8.00
2022-12-08T04:50:23.599Z,7.40
2022-12-08T04:52:57.546Z,6.90
2022-12-08T04:55:35.216Z,7.87
2022-12-08T04:58:03.244Z,7.43
2022-12-08T05:00:33.269Z,9.30
2022-12-08T05:03:01.373Z,7.53
2022-12-08T05:05:29.320Z,8.23
2022-12-08T05:07:57.502Z,8.40
2022-12-08T05:10:26.195Z,7.43
2022-12-08T05:12:54.280Z,8.20
2022-12-08T05:15:22.304Z,7.00
2022-12-08T05:17:54.416Z,7.20
2022-12-08T05:20:22.500Z,7.40
2022-12-08T05:22:50.720Z,7.50
2022-12-08T05:25:51.760Z,7.23
2022-12-08T05:28:42.219Z,8.13
2022-12-08T05:35:04.586Z,7.43
2022-12-08T05:38:11.974Z,6.80
2022-12-08T05:41:05.528Z,7.40
2022-12-08T05:47:34.471Z,8.23
2022-12-08T05:51:10.462Z,6.67
2022-12-08T05:54:04.315Z,7.77
2022-12-08T05:56:35.549Z,7.47
2022-12-08T05:59:06.303Z,7.90
2022-12-08T06:01:34.706Z,8.57
2022-12-08T06:04:24.078Z,8.50
2022-12-08T06:07:57.473Z,7.83
2022-12-08T06:10:25.216Z,7.87
2022-12-08T06:13:10.235Z,8.97
2022-12-08T06:15:53.634Z,8.63
2022-12-08T06:18:23.064Z,8.13
2022-12-08T06:21:08.996Z,8.47
2022-12-08T06:23:39.219Z,8.60
2022-12-08T06:26:09.440Z,10.37
2022-12-08T06:28:52.027Z,15.37
2022-12-08T06:31:42.227Z,17.57
2022-12-08T06:34:10.812Z,24.40
2022-12-08T06:36:38.817Z,19.37
2022-12-08T06:39:21.334Z,15.73
2022-12-08T06:42:09.729Z,21.63
2022-12-08T06:44:37.956Z,17.33
2022-12-08T06:47:06.157Z,15.50
2022-12-08T06:49:36.640Z,15.00
2022-12-08T06:52:04.919Z,14.40
2022-12-08T06:54:45.489Z,12.97
2022-12-08T06:57:16.694Z,12.20
2022-12-08T06:59:44.717Z,10.80
2022-12-08T07:02:12.870Z,10.07
2022-12-08T07:04:42.904Z,9.23
2022-12-08T07:07:12.619Z,8.93
2022-12-08T07:09:42.319Z,9.10
2022-12-08T07:12:10.373Z,9.13
2022-12-08T07:14:38.438Z,8.80
2022-12-08T07:17:06.496Z,8.90
2022-12-08T07:19:34.705Z,8.47
2022-12-08T07:22:02.844Z,8.07
2022-12-08T07:24:30.905Z,8.10
2022-12-08T07:27:00.303Z,8.20
2022-12-08T07:29:28.344Z,8.33
2022-12-08T07:31:56.369Z,7.83
2022-12-08T07:34:24.485Z,8.13
2022-12-08T07:36:52.844Z,8.00
2022-12-08T07:39:20.860Z,7.83
2022-12-08T07:41:48.796Z,8.07
2022-12-08T07:44:18.242Z,7.43
2022-12-08T07:46:46.512Z,6.93
2022-12-08T07:49:15.351Z,8.07
2022-12-08T07:51:43.462Z,8.60
2022-12-08T07:56:54.888Z,8.27
2022-12-08T07:59:24.642Z,8.53
2022-12-08T08:02:13.433Z,8.90
2022-12-08T08:04:41.262Z,8.73
2022-12-08T08:07:09.344Z,8.90
2022-12-08T08:09:37.524Z,9.60
2022-12-08T08:12:30.140Z,9.20
2022-12-08T08:14:58.700Z,11.43
2022-12-08T08:17:37.730Z,10.33
2022-12-08T08:20:08.339Z,10.07
2022-12-08T08:22:37.036Z,10.97
2022-12-08T08:25:05.737Z,10.23
2022-12-08T08:27:34.566Z,11.43
2022-12-08T08:30:21.049Z,12.17
2022-12-08T08:32:49.825Z,11.77
2022-12-08T08:35:18.536Z,12.50
2022-12-08T08:38:01.947Z,12.47
2022-12-08T08:45:22.809Z,11.97
2022-12-08T08:47:58.202Z,11.97
2022-12-08T08:50:26.228Z,12.57
2022-12-08T08:53:07.117Z,13.70
2022-12-08T08:55:40.059Z,13.37
2022-12-08T08:58:08.682Z,13.37
2022-12-08T09:00:56.940Z,12.83
2022-12-08T09:03:37.760Z,13.53
2022-12-08T09:06:09.014Z,12.23
2022-12-08T09:08:37.320Z,13.40
2022-12-08T09:11:05.373Z,13.07
2022-12-08T09:13:33.698Z,12.83
2022-12-08T09:16:03.213Z,12.23
2022-12-08T09:18:32.905Z,13.97
2022-12-08T09:21:16.638Z,13.13
2022-12-08T09:23:44.827Z,12.00
2022-12-08T09:26:13.343Z,12.63
2022-12-08T09:28:46.747Z,13.83
2022-12-08T09:34:08.964Z,11.40
2022-12-08T09:36:48.172Z,10.70
2022-12-08T09:39:23.677Z,10.70
2022-12-08T09:42:10.310Z,11.47
2022-12-08T09:44:54.802Z,10.10
2022-12-08T09:47:40.616Z,10.47
2022-12-08T09:50:16.061Z,10.50
2022-12-08T09:52:47.028Z,11.07
2022-12-08T09:55:23.346Z,11.10
2022-12-08T09:57:58.543Z,10.43
2022-12-08T10:00:26.861Z,10.87
2022-12-08T10:02:57.781Z,10.03
2022-12-08T10:05:35.616Z,9.53
2022-12-08T10:08:10.344Z,9.40
2022-12-08T10:10:50.531Z,9.60
2022-12-08T10:13:25.469Z,9.93
2022-12-08T10:16:04.995Z,10.07
2022-12-08T10:18:43.937Z,8.47
2022-12-08T10:21:20.582Z,8.93
2022-12-08T10:23:51.609Z,9.57
2022-12-08T10:26:23.099Z,8.87
2022-12-08T10:28:51.601Z,8.80
2022-12-08T10:31:21.742Z,8.70
2022-12-08T10:34:01.480Z,8.53
2022-12-08T10:36:50.211Z,8.93
2022-12-08T10:39:32.523Z,6.97
2022-12-08T10:42:07.802Z,8.23
2022-12-08T10:44:48.685Z,8.43
2022-12-08T10:47:17.121Z,8.00
2022-12-08T10:49:47.837Z,7.43
2022-12-08T10:52:41.486Z,7.10
2022-12-08T10:55:30.400Z,8.10
2022-12-08T10:58:03.721Z,7.90
2022-12-08T11:00:31.942Z,7.90
2022-12-08T11:03:04.581Z,7.37
2022-12-08T11:05:36.195Z,7.47
2022-12-08T11:08:06.850Z,7.73
2022-12-08T11:13:37.760Z,7.87
2022-12-08T11:16:08.580Z,7.60
2022-12-08T11:18:42.736Z,7.30
2022-12-08T11:21:14.684Z,8.33
2022-12-08T11:23:48.193Z,7.90
2022-12-08T11:26:42.832Z,8.23
2022-12-08T11:29:14.731Z,7.90
2022-12-08T11:31:59.626Z,8.10
2022-12-08T11:38:27.420Z,8.13
2022-12-08T11:41:07.521Z,8.70
2022-12-08T11:43:47.244Z,7.53
2022-12-08T11:46:32.672Z,7.87
2022-12-08T11:49:10.501Z,7.23
2022-12-08T11:52:11.334Z,7.03
2022-12-08T11:55:20.714Z,6.57
2022-12-08T11:57:53.893Z,6.93
2022-12-08T12:00:22.241Z,6.53
2022-12-08T12:02:59.411Z,7.33
2022-12-08T12:06:05.450Z,6.53
2022-12-08T12:08:40.357Z,6.30
2022-12-08T12:11:35.124Z,5.70
2022-12-08T12:14:18.617Z,5.83
2022-12-08T12:17:00.396Z,5.67
2022-12-08T12:19:30.447Z,5.93
2022-12-08T12:22:14.125Z,6.23
2022-12-08T12:24:46.874Z,5.53
2022-12-08T12:27:26.134Z,5.43
2022-12-08T12:30:00.092Z,5.43
2022-12-08T12:32:40.891Z,5.33
2022-12-08T12:35:18.104Z,5.80
2022-12-08T12:37:49.862Z,6.00
2022-12-08T12:40:21.237Z,5.80
2022-12-08T12:43:25.099Z,6.70
2022-12-08T12:46:33.329Z,5.87
2022-12-08T12:49:34.980Z,6.47
2022-12-08T12:52:05.450Z,5.43
2022-12-08T12:54:33.382Z,7.40
2022-12-08T12:57:21.232Z,6.50
2022-12-08T13:00:07.646Z,6.87
2022-12-08T13:02:40.943Z,7.70
2022-12-08T13:05:12.407Z,7.83
2022-12-08T13:07:47.434Z,8.90
2022-12-08T13:10:20.145Z,8.00
2022-12-08T13:13:04.342Z,7.47
2022-12-08T13:15:37.167Z,9.10
2022-12-08T13:18:06.385Z,4.97
2022-12-08T13:20:43.309Z,4.53
2022-12-08T13:23:28.859Z,4.60
2022-12-08T13:26:18.603Z,4.03
2022-12-08T13:29:23.545Z,4.70
2022-12-08T13:31:54.026Z,4.30
2022-12-08T13:34:28.188Z,4.27
2022-12-08T13:37:32.493Z,3.97
2022-12-08T13:40:09.580Z,4.20
2022-12-08T13:42:45.170Z,3.63
2022-12-08T13:45:27.936Z,4.13
2022-12-08T13:48:30.118Z,3.90
2022-12-08T13:57:08.497Z,3.70
2022-12-08T13:59:45.567Z,3.70
2022-12-08T14:02:19.522Z,3.67
2022-12-08T14:07:37.926Z,4.23
2022-12-08T14:10:09.666Z,3.90
2022-12-08T14:12:39.305Z,4.13
2022-12-08T14:15:38.925Z,3.60
2022-12-08T14:18:23.569Z,3.80
2022-12-08T14:21:24.350Z,4.60
2022-12-08T14:23:53.798Z,4.73
2022-12-08T14:26:41.220Z,6.43
2022-12-08T14:29:21.619Z,5.37
2022-12-08T14:31:49.555Z,5.13
2022-12-08T14:34:17.686Z,5.10
2022-12-08T14:36:45.704Z,6.07
2022-12-08T14:39:13.598Z,5.63
2022-12-08T14:41:41.518Z,5.10
2022-12-08T14:44:24.679Z,5.57
2022-12-08T14:47:06.212Z,5.40
2022-12-08T14:49:42.558Z,5.60
2022-12-08T14:52:15.530Z,8.53
2022-12-08T14:54:45.653Z,10.90
2022-12-08T14:57:20.362Z,9.00
2022-12-08T15:00:24.257Z,10.33
2022-12-08T15:02:57.140Z,11.87
2022-12-08T15:05:31.311Z,16.27
2022-12-08T15:08:04.415Z,12.43
2022-12-08T15:10:38.233Z,10.13
2022-12-08T15:13:21.116Z,8.93
2022-12-08T15:15:57.181Z,7.10
2022-12-08T15:18:33.637Z,6.43
2022-12-08T15:21:06.060Z,6.30
2022-12-08T15:23:39.544Z,6.20
2022-12-08T15:26:07.891Z,6.83
2022-12-08T15:28:36.262Z,6.37
2022-12-08T15:31:06.701Z,6.70
2022-12-08T15:33:34.651Z,9.20
2022-12-08T15:36:03.181Z,14.30
2022-12-08T15:38:34.530Z,15.30
2022-12-08T15:41:02.861Z,16.27
2022-12-08T15:43:32.799Z,18.10
2022-12-08T15:46:00.756Z,15.17
2022-12-08T15:48:31.536Z,16.97
2022-12-08T15:50:59.940Z,14.87
2022-12-08T15:53:28.137Z,13.50
2022-12-08T15:58:53.629Z,10.57
2022-12-08T16:01:22.689Z,10.13
2022-12-08T16:04:36.927Z,10.20
2022-12-08T16:09:33.772Z,10.70
2022-12-08T16:12:19.759Z,11.00
2022-12-08T16:15:47.050Z,9.57
2022-12-08T16:17:36.685Z,10.13
2022-12-08T16:20:09.815Z,10.73
2022-12-08T16:22:54.481Z,9.90
2022-12-08T16:25:27.273Z,10.07
2022-12-08T16:28:08.143Z,10.90
2022-12-08T16:30:36.816Z,11.53
2022-12-08T16:33:04.894Z,11.53
2022-12-08T16:35:34.146Z,11.07
2022-12-08T16:38:02.256Z,11.63
2022-12-08T16:40:58.750Z,11.77
2022-12-08T16:43:25.631Z,13.70
2022-12-08T16:45:56.059Z,12.73
2022-12-08T16:48:24.373Z,13.80
2022-12-08T16:51:27.082Z,12.87
2022-12-08T16:53:58.113Z,11.50
2022-12-08T17:00:16.508Z,10.93
2022-12-08T17:02:45.219Z,11.30
2022-12-08T17:05:15.139Z,12.33
2022-12-08T17:07:48.672Z,11.00
2022-12-08T17:10:19.087Z,13.53
2022-12-08T17:12:48.273Z,17.73
2022-12-08T17:15:18.528Z,15.97
2022-12-08T17:17:46.411Z,16.57
2022-12-08T17:20:16.495Z,15.43
2022-12-08T17:22:44.658Z,12.87
2022-12-08T17:25:14.239Z,13.87
2022-12-08T17:27:43.311Z,11.97
2022-12-08T17:30:15.537Z,11.33
2022-12-08T17:32:43.869Z,10.33
2022-12-08T17:35:13.246Z,9.87
2022-12-08T17:37:41.211Z,10.60
2022-12-08T17:40:10.095Z,9.97
2022-12-08T17:42:39.555Z,10.57
2022-12-08T17:45:08.809Z,9.90
2022-12-08T17:47:37.469Z,8.97
2022-12-08T17:50:07.109Z,9.67
2022-12-08T17:52:35.334Z,12.27
2022-12-08T17:55:03.549Z,10.97
2022-12-08T17:57:32.109Z,11.60
2022-12-08T18:00:01.443Z,10.77
2022-12-08T18:02:33.979Z,13.23
2022-12-08T18:05:02.208Z,13.20
2022-12-08T18:07:30.085Z,13.33
2022-12-08T18:09:57.890Z,12.63
2022-12-08T18:12:25.962Z,15.80
2022-12-08T18:14:54.113Z,14.83
2022-12-08T18:17:23.670Z,16.03
2022-12-08T18:19:51.491Z,16.13
2022-12-08T18:22:19.296Z,15.80
2022-12-08T18:24:47.670Z,13.20
2022-12-08T18:27:15.585Z,12.33
2022-12-08T18:29:43.484Z,11.77
2022-12-08T18:32:11.336Z,12.47
2022-12-08T18:34:40.691Z,12.63
2022-12-08T18:37:08.871Z,14.13
2022-12-08T18:39:37.516Z,15.40
2022-12-08T18:42:23.038Z,15.27
2022-12-08T18:44:51.577Z,13.60
2022-12-08T18:47:19.914Z,13.27
2022-12-08T18:49:54.402Z,12.77
2022-12-08T18:52:29.609Z,12.40
2022-12-08T18:55:07.691Z,12.00
2022-12-08T18:57:37.442Z,11.57
2022-12-08T19:00:06.276Z,11.90
2022-12-08T19:02:34.897Z,14.90
2022-12-08T19:05:06.120Z,13.83
2022-12-08T19:07:34.043Z,13.73
2022-12-08T19:10:01.848Z,13.07
2022-12-08T19:12:29.924Z,13.33
2022-12-08T19:14:58.451Z,13.97
2022-12-08T19:17:27.274Z,14.57
2022-12-08T19:19:54.992Z,14.10
2022-12-08T19:22:24.155Z,15.37
2022-12-08T19:24:52.397Z,16.83
2022-12-08T19:27:20.247Z,15.17
2022-12-08T19:29:48.209Z,16.67
2022-12-08T19:32:16.021Z,14.70
2022-12-08T19:34:43.935Z,15.50
2022-12-08T19:37:12.835Z,15.90
2022-12-08T19:39:59.437Z,17.53
2022-12-08T19:42:44.937Z,21.07
2022-12-08T19:45:15.225Z,18.87
2022-12-08T19:47:43.243Z,22.20
2022-12-08T19:50:30.972Z,18.10
2022-12-08T19:52:59.084Z,16.80
2022-12-08T19:55:29.317Z,15.03
2022-12-08T19:57:58.355Z,14.33
2022-12-08T20:00:26.688Z,12.20
2022-12-08T20:02:54.559Z,12.67
2022-12-08T20:05:22.806Z,12.10
2022-12-08T20:07:51.084Z,12.13
2022-12-08T20:10:22.092Z,10.57
2022-12-08T20:12:51.598Z,11.53
2022-12-08T20:15:19.456Z,11.70
2022-12-08T20:17:47.263Z,11.53
2022-12-08T20:20:15.505Z,12.23
2022-12-08T20:22:45.121Z,12.17
2022-12-08T20:25:13.508Z,11.80
2022-12-08T20:27:42.229Z,11.57
2022-12-08T20:30:16.735Z,10.93
2022-12-08T20:32:45.062Z,11.10
2022-12-08T20:35:13.070Z,13.50
2022-12-08T20:37:40.983Z,11.27
2022-12-08T20:40:10.224Z,11.80
2022-12-08T20:42:38.068Z,12.93
2022-12-08T20:45:09.050Z,14.87
2022-12-08T20:47:38.456Z,14.40
2022-12-08T20:50:07.887Z,14.73
2022-12-08T20:52:37.900Z,15.03
2022-12-08T20:55:07.273Z,14.50
2022-12-08T20:57:35.862Z,13.33
2022-12-08T21:00:05.744Z,14.67
2022-12-08T21:02:34.394Z,13.30
2022-12-08T21:05:03.783Z,14.40
2022-12-08T21:07:33.455Z,12.53
2022-12-08T21:10:01.596Z,12.80
2022-12-08T21:12:29.576Z,12.50
2022-12-08T21:14:57.444Z,12.33
2022-12-08T21:17:25.453Z,12.13
2022-12-08T21:19:54.266Z,12.40
2022-12-08T21:22:23.592Z,13.33
2022-12-08T21:24:52.455Z,14.23
2022-12-08T21:27:20.272Z,14.37
2022-12-08T21:29:48.262Z,13.10
2022-12-08T21:32:16.347Z,13.90
2022-12-08T21:34:44.670Z,13.10
2022-12-08T21:37:12.432Z,14.80
2022-12-08T21:39:41.946Z,14.83
2022-12-08T21:42:33.732Z,12.93
2022-12-08T21:45:02.108Z,14.23
2022-12-08T21:47:30.400Z,14.80
2022-12-08T21:49:58.469Z,17.53
2022-12-08T21:52:26.346Z,16.00
2022-12-08T21:54:55.595Z,15.23
2022-12-08T21:57:23.422Z,15.17
2022-12-08T21:59:52.441Z,15.73
2022-12-08T22:02:22.618Z,15.90
2022-12-08T22:04:52.808Z,16.13
2022-12-08T22:07:21.650Z,15.13
2022-12-08T22:09:49.791Z,15.27
2022-12-08T22:12:19.331Z,15.60
2022-12-08T22:14:49.941Z,16.33
2022-12-08T22:17:18.680Z,14.80
2022-12-08T22:19:46.775Z,15.77
2022-12-08T22:22:14.764Z,15.50
2022-12-08T22:24:42.856Z,16.40
2022-12-08T22:27:10.889Z,15.07
2022-12-08T22:29:43.342Z,15.77
2022-12-08T22:32:11.295Z,16.33
2022-12-08T22:34:39.174Z,17.40
2022-12-08T22:37:06.971Z,19.17
2022-12-08T22:39:35.757Z,20.70
2022-12-08T22:42:03.891Z,21.87
2022-12-08T22:44:31.952Z,21.23
2022-12-08T22:47:01.317Z,19.70
2022-12-08T22:49:30.361Z,20.27
2022-12-08T22:51:58.214Z,19.10
2022-12-08T22:54:27.116Z,16.53
2022-12-08T22:56:55.278Z,16.40
2022-12-08T22:59:23.130Z,16.00
2022-12-08T23:01:51.467Z,17.40
2022-12-08T23:04:20.763Z,16.03
2022-12-08T23:06:48.662Z,16.20
2022-12-08T23:09:16.608Z,14.47
2022-12-08T23:11:45.008Z,14.97
2022-12-08T23:14:12.950Z,14.00
2022-12-08T23:16:41.085Z,13.77
2022-12-08T23:19:08.941Z,13.97
2022-12-08T23:21:38.405Z,14.57
2022-12-08T23:24:06.759Z,14.50
2022-12-08T23:26:35.327Z,14.23
2022-12-08T23:29:04.466Z,14.00
2022-12-08T23:31:32.860Z,14.40
2022-12-08T23:34:00.933Z,13.83
2022-12-08T23:36:28.762Z,13.47
2022-12-08T23:38:58.171Z,14.00
2022-12-08T23:41:26.101Z,14.77
2022-12-08T23:43:54.136Z,13.37
2022-12-08T23:46:24.097Z,15.47
2022-12-08T23:48:54.261Z,13.37
2022-12-08T23:51:22.344Z,14.07
2022-12-08T23:53:50.379Z,13.43
2022-12-08T23:56:22.208Z,13.33
2022-12-08T23:58:53.945Z,14.07
